createdAt,value
2023-03-05T00:01:33.696Z,5.73
2023-03-05T00:04:03.797Z,6.58
2023-03-05T00:06:32.997Z,7.22
2023-03-05T00:09:01.709Z,7.54
2023-03-05T00:11:30.789Z,7.03
2023-03-05T00:14:00.074Z,6.31
2023-03-05T00:16:29.573Z,5.72
2023-03-05T00:19:00.917Z,5.23
2023-03-05T00:21:35.027Z,4.82
2023-03-05T00:24:05.964Z,4.46
2023-03-05T00:26:36.799Z,4.14
2023-03-05T00:29:05.890Z,3.85
2023-03-05T00:31:36.011Z,3.60
2023-03-05T00:34:06.869Z,3.36
2023-03-05T00:36:36.862Z,3.18
2023-03-05T00:39:05.033Z,3.00
2023-03-05T00:41:33.838Z,2.88
2023-03-05T00:44:02.197Z,2.77
2023-03-05T00:46:30.469Z,2.65
2023-03-05T00:48:58.644Z,2.56
2023-03-05T00:51:27.124Z,2.46
2023-03-05T00:53:55.825Z,2.37
2023-03-05T00:56:24.509Z,2.30
2023-03-05T00:58:53.588Z,2.22
2023-03-05T01:01:21.918Z,2.16
2023-03-05T01:03:50.538Z,2.10
2023-03-05T01:06:18.931Z,2.04
2023-03-05T01:08:47.186Z,1.99
2023-03-05T01:11:15.454Z,2.22
2023-03-05T01:13:43.828Z,3.71
2023-03-05T01:16:12.027Z,5.01
2023-03-05T01:18:42.017Z,5.91
2023-03-05T01:21:10.900Z,6.60
2023-03-05T01:23:39.072Z,6.52
2023-03-05T01:26:08.745Z,5.92
2023-03-05T01:28:38.578Z,5.30
2023-03-05T01:31:08.922Z,4.76
2023-03-05T01:33:37.695Z,4.35
2023-03-05T01:36:13.549Z,4.04
2023-03-05T01:38:43.308Z,3.71
2023-03-05T01:41:12.651Z,3.45
2023-03-05T01:43:41.657Z,3.18
2023-03-05T01:46:30.099Z,2.95
2023-03-05T01:49:01.362Z,2.70
2023-03-05T01:51:51.659Z,2.49
2023-03-05T01:54:21.750Z,2.28
2023-03-05T01:56:51.048Z,2.11
2023-03-05T01:59:20.041Z,1.97
2023-03-05T02:01:51.490Z,1.85
2023-03-05T02:04:22.124Z,1.72
2023-03-05T02:06:50.698Z,1.60
2023-03-05T02:09:23.583Z,1.49
2023-03-05T02:11:52.063Z,1.61
2023-03-05T02:14:21.269Z,2.76
2023-03-05T02:16:49.478Z,4.21
2023-03-05T02:19:17.914Z,4.84
2023-03-05T02:21:48.369Z,5.27
2023-03-05T02:24:20.092Z,5.54
2023-03-05T02:26:48.265Z,4.95
2023-03-05T02:29:19.511Z,4.25
2023-03-05T02:31:47.811Z,3.70
2023-03-05T02:34:16.171Z,3.25
2023-03-05T02:36:44.463Z,2.87
2023-03-05T02:39:13.119Z,2.55
2023-03-05T02:41:41.293Z,2.30
2023-03-05T02:44:09.873Z,2.07
2023-03-05T02:46:38.252Z,2.08
2023-03-05T02:49:06.529Z,3.21
2023-03-05T02:51:34.906Z,4.31
2023-03-05T02:54:03.077Z,5.05
2023-03-05T02:56:31.966Z,5.48
2023-03-05T02:59:01.786Z,6.08
2023-03-05T03:01:30.729Z,6.28
2023-03-05T03:03:59.449Z,5.62
2023-03-05T03:06:27.533Z,4.83
2023-03-05T03:08:55.805Z,4.18
2023-03-05T03:11:23.967Z,3.68
2023-03-05T03:13:52.149Z,3.26
2023-03-05T03:16:20.366Z,2.89
2023-03-05T03:18:49.113Z,2.58
2023-03-05T03:21:20.062Z,2.34
2023-03-05T03:23:48.224Z,2.29
2023-03-05T03:26:16.897Z,3.15
2023-03-05T03:28:45.683Z,3.97
2023-03-05T03:31:13.776Z,4.81
2023-03-05T03:33:42.035Z,5.59
2023-03-05T03:36:10.906Z,6.16
2023-03-05T03:38:39.094Z,6.43
2023-03-05T03:41:08.184Z,5.79
2023-03-05T03:43:36.877Z,4.99
2023-03-05T03:46:07.322Z,4.36
2023-03-05T03:48:36.260Z,3.82
2023-03-05T03:51:06.524Z,3.39
2023-03-05T03:53:34.980Z,3.02
2023-03-05T03:56:03.667Z,2.72
2023-03-05T03:58:32.772Z,2.45
2023-03-05T04:01:00.940Z,2.47
2023-03-05T04:03:29.209Z,3.71
2023-03-05T04:05:57.387Z,5.08
2023-03-05T04:08:25.656Z,5.83
2023-03-05T04:10:53.832Z,6.32
2023-03-05T04:13:22.003Z,5.65
2023-03-05T04:15:50.685Z,4.75
2023-03-05T04:18:18.964Z,4.08
2023-03-05T04:20:47.232Z,3.52
2023-03-05T04:23:15.716Z,3.06
2023-03-05T04:25:44.194Z,2.69
2023-03-05T04:28:12.670Z,2.62
2023-03-05T04:30:40.847Z,3.64
2023-03-05T04:33:09.121Z,4.83
2023-03-05T04:35:37.725Z,5.56
2023-03-05T04:38:05.970Z,5.87
2023-03-05T04:40:34.552Z,6.10
2023-03-05T04:43:03.925Z,5.51
2023-03-05T04:45:32.431Z,4.70
2023-03-05T04:48:00.813Z,4.01
2023-03-05T04:50:28.991Z,3.45
2023-03-05T04:52:57.268Z,3.15
2023-03-05T04:55:25.424Z,3.58
2023-03-05T04:57:53.703Z,4.11
2023-03-05T05:00:23.183Z,5.00
2023-03-05T05:02:52.470Z,5.78
2023-03-05T05:05:24.786Z,6.17
2023-03-05T05:07:57.146Z,6.67
2023-03-05T05:10:26.666Z,6.91
2023-03-05T05:12:54.831Z,7.09
2023-03-05T05:15:23.120Z,7.50
2023-03-05T05:17:51.265Z,7.57
2023-03-05T05:20:20.238Z,6.64
2023-03-05T05:22:48.436Z,5.59
2023-03-05T05:25:16.707Z,4.69
2023-03-05T05:27:44.884Z,3.99
2023-03-05T05:30:13.562Z,3.55
2023-03-05T05:32:41.796Z,4.10
2023-03-05T05:35:10.716Z,4.91
2023-03-05T05:37:38.907Z,5.58
2023-03-05T05:40:08.520Z,6.13
2023-03-05T05:42:36.796Z,6.71
2023-03-05T05:45:06.094Z,7.19
2023-03-05T05:47:34.358Z,7.59
2023-03-05T05:50:02.530Z,7.98
2023-03-05T05:52:30.804Z,8.04
2023-03-05T05:54:58.857Z,7.02
2023-03-05T05:57:27.051Z,6.00
2023-03-05T05:59:55.214Z,5.14
2023-03-05T06:02:23.599Z,4.67
2023-03-05T06:04:52.075Z,5.52
2023-03-05T06:07:20.152Z,6.21
2023-03-05T06:09:48.929Z,6.61
2023-03-05T06:12:17.204Z,7.22
2023-03-05T06:14:45.385Z,7.56
2023-03-05T06:17:21.842Z,7.45
2023-03-05T06:19:55.536Z,6.44
2023-03-05T06:22:23.715Z,5.55
2023-03-05T06:24:51.903Z,4.87
2023-03-05T06:27:20.176Z,4.55
2023-03-05T06:29:48.308Z,5.44
2023-03-05T06:32:16.401Z,6.29
2023-03-05T06:34:44.686Z,6.72
2023-03-05T06:37:12.874Z,7.01
2023-03-05T06:39:41.027Z,7.13
2023-03-05T06:42:10.342Z,6.34
2023-03-05T06:44:40.522Z,5.46
2023-03-05T06:47:10.671Z,4.73
2023-03-05T06:49:39.651Z,4.15
2023-03-05T06:52:10.280Z,3.88
2023-03-05T06:54:38.351Z,4.59
2023-03-05T06:57:06.525Z,5.52
2023-03-05T06:59:34.697Z,6.14
2023-03-05T07:02:02.936Z,5.59
2023-03-05T07:04:31.360Z,4.84
2023-03-05T07:07:00.766Z,4.27
2023-03-05T07:09:29.329Z,3.82
2023-03-05T07:11:57.709Z,3.49
2023-03-05T07:14:25.997Z,3.47
2023-03-05T07:16:54.097Z,4.58
2023-03-05T07:19:22.327Z,5.57
2023-03-05T07:21:50.499Z,5.87
2023-03-05T07:24:18.568Z,5.35
2023-03-05T07:26:48.830Z,4.74
2023-03-05T07:29:17.167Z,4.26
2023-03-05T07:31:45.261Z,3.87
2023-03-05T07:34:13.415Z,3.53
2023-03-05T07:36:43.223Z,3.24
2023-03-05T07:39:12.822Z,3.06
2023-03-05T07:41:40.920Z,2.89
2023-03-05T07:44:10.204Z,2.77
2023-03-05T07:46:38.422Z,2.94
2023-03-05T07:49:06.640Z,4.29
2023-03-05T07:51:35.017Z,5.50
2023-03-05T07:54:03.395Z,6.12
2023-03-05T07:56:35.568Z,5.64
2023-03-05T07:59:09.057Z,4.92
2023-03-05T08:01:37.849Z,4.36
2023-03-05T08:04:07.484Z,3.95
2023-03-05T08:06:35.742Z,3.60
2023-03-05T08:09:04.110Z,3.26
2023-03-05T08:11:32.486Z,3.04
2023-03-05T08:14:01.174Z,3.62
2023-03-05T08:16:29.479Z,4.91
2023-03-05T08:18:58.849Z,5.98
2023-03-05T08:21:33.923Z,6.51
2023-03-05T08:24:04.709Z,5.82
2023-03-05T08:26:34.973Z,5.10
2023-03-05T08:29:03.627Z,4.44
2023-03-05T08:31:32.356Z,3.92
2023-03-05T08:34:02.003Z,3.62
2023-03-05T08:36:30.682Z,3.42
2023-03-05T08:38:59.884Z,4.26
2023-03-05T08:41:28.289Z,5.37
2023-03-05T08:43:56.640Z,6.20
2023-03-05T08:46:25.308Z,6.37
2023-03-05T08:48:53.912Z,5.66
2023-03-05T08:51:25.978Z,4.93
2023-03-05T08:53:55.978Z,4.27
2023-03-05T08:56:25.589Z,4.15
2023-03-05T08:58:53.775Z,4.96
2023-03-05T09:01:22.964Z,5.81
2023-03-05T09:03:51.450Z,6.39
2023-03-05T09:06:19.712Z,6.78
2023-03-05T09:08:47.882Z,6.76
2023-03-05T09:11:16.260Z,6.04
2023-03-05T09:13:44.549Z,5.28
2023-03-05T09:16:16.028Z,4.75
2023-03-05T09:18:44.904Z,4.40
2023-03-05T09:21:16.081Z,4.32
2023-03-05T09:23:45.221Z,5.04
2023-03-05T09:26:15.936Z,5.82
2023-03-05T09:28:44.115Z,6.15
2023-03-05T09:31:12.904Z,5.67
2023-03-05T09:33:41.688Z,5.06
2023-03-05T09:36:19.873Z,4.57
2023-03-05T09:38:48.490Z,4.24
2023-03-05T09:41:34.678Z,4.06
2023-03-05T09:44:18.508Z,4.06
2023-03-05T09:46:55.268Z,4.77
2023-03-05T09:49:44.345Z,5.52
2023-03-05T09:52:21.019Z,6.42
2023-03-05T09:54:58.506Z,6.78
2023-03-05T09:57:36.816Z,6.24
2023-03-05T10:00:34.811Z,5.58
2023-03-05T10:03:06.800Z,5.11
2023-03-05T10:05:59.911Z,4.81
2023-03-05T10:08:33.720Z,4.53
2023-03-05T10:11:03.624Z,4.30
2023-03-05T10:13:39.785Z,4.08
2023-03-05T10:16:23.276Z,3.90
2023-03-05T10:19:08.078Z,3.78
2023-03-05T10:22:03.277Z,3.74
2023-03-05T10:24:31.455Z,3.74
2023-03-05T10:27:14.701Z,3.68
2023-03-05T10:29:58.215Z,3.58
2023-03-05T10:33:03.964Z,3.46
2023-03-05T10:35:57.693Z,3.80
2023-03-05T10:39:00.117Z,5.61
2023-03-05T10:41:40.573Z,7.25
2023-03-05T10:44:15.910Z,8.59
2023-03-05T10:46:45.109Z,9.56
2023-03-05T10:49:29.973Z,9.40
2023-03-05T10:52:05.618Z,8.74
2023-03-05T10:54:36.027Z,8.13
2023-03-05T10:57:05.346Z,7.59
2023-03-05T10:59:33.527Z,7.05
2023-03-05T11:02:08.956Z,6.56
2023-03-05T11:04:39.499Z,6.11
2023-03-05T11:07:16.464Z,5.70
2023-03-05T11:10:04.229Z,5.26
2023-03-05T11:12:35.040Z,4.84
2023-03-05T11:15:09.252Z,4.43
2023-03-05T11:17:48.090Z,4.03
2023-03-05T11:20:29.042Z,4.00
2023-03-05T11:23:16.251Z,5.47
2023-03-05T11:26:13.713Z,7.11
2023-03-05T11:28:57.537Z,7.79
2023-03-05T11:31:31.553Z,7.12
2023-03-05T11:34:09.862Z,6.47
2023-03-05T11:36:40.498Z,5.88
2023-03-05T11:39:08.462Z,5.42
2023-03-05T11:41:40.637Z,5.08
2023-03-05T11:44:15.757Z,4.84
2023-03-05T11:46:47.551Z,4.65
2023-03-05T11:49:20.334Z,4.83
2023-03-05T11:52:00.560Z,6.30
2023-03-05T11:54:37.125Z,7.35
2023-03-05T11:57:06.531Z,6.75
2023-03-05T11:59:36.149Z,6.02
2023-03-05T12:02:14.671Z,5.45
2023-03-05T12:04:43.033Z,4.95
2023-03-05T12:07:14.172Z,4.67
2023-03-05T12:09:51.977Z,4.48
2023-03-05T12:13:05.379Z,4.45
2023-03-05T12:16:04.654Z,4.55
2023-03-05T12:18:39.033Z,4.56
2023-03-05T12:21:27.366Z,4.49
2023-03-05T12:24:01.904Z,4.37
2023-03-05T12:27:04.765Z,4.25
2023-03-05T12:29:33.181Z,4.09
2023-03-05T12:32:01.791Z,3.98
2023-03-05T12:34:42.928Z,3.89
2023-03-05T12:37:13.337Z,3.83
2023-03-05T12:39:49.685Z,3.85
2023-03-05T12:42:30.200Z,3.88
2023-03-05T12:45:37.974Z,3.92
2023-03-05T12:48:10.942Z,3.94
2023-03-05T12:50:39.632Z,3.97
2023-03-05T12:53:13.030Z,3.97
2023-03-05T12:55:58.605Z,3.98
2023-03-05T12:59:05.057Z,4.01
2023-03-05T13:01:43.557Z,4.00
2023-03-05T13:04:21.906Z,3.94
2023-03-05T13:07:04.703Z,3.89
2023-03-05T13:09:36.470Z,3.83
2023-03-05T13:12:06.717Z,3.79
2023-03-05T13:14:49.497Z,3.76
2023-03-05T13:17:31.801Z,3.77
2023-03-05T13:20:01.610Z,3.82
2023-03-05T13:22:31.318Z,3.87
2023-03-05T13:25:20.705Z,3.93
2023-03-05T13:27:48.859Z,4.02
2023-03-05T13:30:22.966Z,4.06
2023-03-05T13:32:52.791Z,4.10
2023-03-05T13:35:21.390Z,4.14
2023-03-05T13:37:49.942Z,4.14
2023-03-05T13:40:26.823Z,4.13
2023-03-05T13:42:55.894Z,4.10
2023-03-05T13:45:24.259Z,4.06
2023-03-05T13:48:00.970Z,4.03
2023-03-05T13:50:31.920Z,4.00
2023-03-05T13:53:30.695Z,3.96
2023-03-05T13:56:06.168Z,3.90
2023-03-05T13:58:53.987Z,3.85
2023-03-05T14:01:40.875Z,3.86
2023-03-05T14:04:20.139Z,3.97
2023-03-05T14:06:59.850Z,4.19
2023-03-05T14:09:30.822Z,4.49
2023-03-05T14:12:05.724Z,4.70
2023-03-05T14:14:38.506Z,4.80
2023-03-05T14:17:34.728Z,4.85
2023-03-05T14:20:27.492Z,4.86
2023-03-05T14:22:59.679Z,4.87
2023-03-05T14:25:40.002Z,4.86
2023-03-05T14:28:17.307Z,4.81
2023-03-05T14:30:47.699Z,4.72
2023-03-05T14:33:23.523Z,4.62
2023-03-05T14:35:52.534Z,4.50
2023-03-05T14:38:24.983Z,4.41
2023-03-05T14:40:53.418Z,4.29
2023-03-05T14:43:21.882Z,4.20
2023-03-05T14:45:50.087Z,4.15
2023-03-05T14:48:19.354Z,4.10
2023-03-05T14:50:56.346Z,4.02
2023-03-05T14:53:28.894Z,3.89
2023-03-05T14:55:57.192Z,3.75
2023-03-05T14:58:29.973Z,3.69
2023-03-05T15:00:59.270Z,3.65
2023-03-05T15:03:28.200Z,3.60
2023-03-05T15:05:57.661Z,3.53
2023-03-05T15:08:28.406Z,3.49
2023-03-05T15:10:57.483Z,3.47
2023-03-05T15:13:26.475Z,3.45
2023-03-05T15:15:55.232Z,3.43
2023-03-05T15:18:24.049Z,3.65
2023-03-05T15:20:53.272Z,5.00
2023-03-05T15:23:21.625Z,6.33
2023-03-05T15:25:50.313Z,7.31
2023-03-05T15:28:19.005Z,7.92
2023-03-05T15:30:47.739Z,8.00
2023-03-05T15:33:17.488Z,7.33
2023-03-05T15:35:45.795Z,6.55
2023-03-05T15:38:15.462Z,5.94
2023-03-05T15:40:44.455Z,5.47
2023-03-05T15:43:13.037Z,5.05
2023-03-05T15:45:41.413Z,4.64
2023-03-05T15:48:09.800Z,4.27
2023-03-05T15:50:43.033Z,3.92
2023-03-05T15:53:13.501Z,3.88
2023-03-05T15:55:43.833Z,5.05
2023-03-05T15:58:17.438Z,6.12
2023-03-05T16:00:47.629Z,7.08
2023-03-05T16:03:16.176Z,7.86
2023-03-05T16:05:44.611Z,8.44
2023-03-05T16:08:13.088Z,8.62
2023-03-05T16:10:41.381Z,7.76
2023-03-05T16:13:12.716Z,6.69
2023-03-05T16:15:41.606Z,5.87
2023-03-05T16:18:12.953Z,5.19
2023-03-05T16:20:41.330Z,4.61
2023-03-05T16:23:09.602Z,4.10
2023-03-05T16:25:38.292Z,3.94
2023-03-05T16:28:06.878Z,4.92
2023-03-05T16:30:35.453Z,5.79
2023-03-05T16:33:03.833Z,6.47
2023-03-05T16:35:32.957Z,7.01
2023-03-05T16:38:01.717Z,7.64
2023-03-05T16:40:51.381Z,7.76
2023-03-05T16:43:18.550Z,6.77
2023-03-05T16:45:46.708Z,5.92
2023-03-05T16:48:14.777Z,5.21
2023-03-05T16:50:42.952Z,4.67
2023-03-05T16:53:11.122Z,4.19
2023-03-05T16:55:39.601Z,3.97
2023-03-05T16:58:08.083Z,4.92
2023-03-05T17:00:36.307Z,6.04
2023-03-05T17:03:04.533Z,6.86
2023-03-05T17:05:36.189Z,7.40
2023-03-05T17:08:05.170Z,7.92
2023-03-05T17:10:33.864Z,8.11
2023-03-05T17:13:02.063Z,7.33
2023-03-05T17:15:30.409Z,6.40
2023-03-05T17:17:58.678Z,5.68
2023-03-05T17:20:27.778Z,5.08
2023-03-05T17:22:55.943Z,4.59
2023-03-05T17:25:24.115Z,4.19
2023-03-05T17:27:52.523Z,3.84
2023-03-05T17:30:20.877Z,3.83
2023-03-05T17:32:52.625Z,4.99
2023-03-05T17:35:22.171Z,6.05
2023-03-05T17:37:51.738Z,6.71
2023-03-05T17:40:20.118Z,7.27
2023-03-05T17:42:48.187Z,7.72
2023-03-05T17:45:17.072Z,7.94
2023-03-05T17:47:45.244Z,7.28
2023-03-05T17:50:14.644Z,6.48
2023-03-05T17:52:42.817Z,5.82
2023-03-05T17:55:12.829Z,5.28
2023-03-05T17:57:42.655Z,4.81
2023-03-05T18:00:16.442Z,4.37
2023-03-05T18:02:45.037Z,3.87
2023-03-05T18:05:14.123Z,3.62
2023-03-05T18:07:42.501Z,4.36
2023-03-05T18:10:11.799Z,5.20
2023-03-05T18:12:40.488Z,5.89
2023-03-05T18:15:10.956Z,6.55
2023-03-05T18:17:39.701Z,7.08
2023-03-05T18:20:10.099Z,7.48
2023-03-05T18:22:38.194Z,7.55
2023-03-05T18:25:06.977Z,6.84
2023-03-05T18:27:35.457Z,6.01
2023-03-05T18:30:04.124Z,5.36
2023-03-05T18:32:32.237Z,4.81
2023-03-05T18:35:00.378Z,4.31
2023-03-05T18:37:28.557Z,3.93
2023-03-05T18:39:58.186Z,3.54
2023-03-05T18:42:26.434Z,3.39
2023-03-05T18:44:56.549Z,4.41
2023-03-05T18:47:24.731Z,5.47
2023-03-05T18:49:53.407Z,6.12
2023-03-05T18:52:21.576Z,6.84
2023-03-05T18:54:49.752Z,7.63
2023-03-05T18:57:17.925Z,7.95
2023-03-05T18:59:46.094Z,7.14
2023-03-05T19:02:15.597Z,6.14
2023-03-05T19:04:43.879Z,5.38
2023-03-05T19:07:12.179Z,4.82
2023-03-05T19:10:02.453Z,4.30
2023-03-05T19:12:35.375Z,3.81
2023-03-05T19:15:05.693Z,3.44
2023-03-05T19:17:34.128Z,3.36
2023-03-05T19:20:06.600Z,4.34
2023-03-05T19:22:34.885Z,5.68
2023-03-05T19:25:03.881Z,6.74
2023-03-05T19:27:32.036Z,7.50
2023-03-05T19:30:00.618Z,7.81
2023-03-05T19:32:29.343Z,7.10
2023-03-05T19:34:58.415Z,6.27
2023-03-05T19:37:27.387Z,5.61
2023-03-05T19:39:55.766Z,5.12
2023-03-05T19:42:23.934Z,4.70
2023-03-05T19:44:52.112Z,4.32
2023-03-05T19:47:20.482Z,3.98
2023-03-05T19:49:48.657Z,3.67
2023-03-05T19:52:16.930Z,3.60
2023-03-05T19:54:45.106Z,4.39
2023-03-05T19:57:13.274Z,5.08
2023-03-05T19:59:41.649Z,5.57
2023-03-05T20:02:12.176Z,5.91
2023-03-05T20:04:40.347Z,6.06
2023-03-05T20:07:10.569Z,6.14
2023-03-05T20:09:38.761Z,6.44
2023-03-05T20:12:08.043Z,6.71
2023-03-05T20:14:36.537Z,6.92
2023-03-05T20:17:04.753Z,7.09
2023-03-05T20:19:32.974Z,7.21
2023-03-05T20:22:01.141Z,7.20
2023-03-05T20:24:29.314Z,6.56
2023-03-05T20:26:57.600Z,5.72
2023-03-05T20:29:25.686Z,5.03
2023-03-05T20:31:56.489Z,4.52
2023-03-05T20:34:25.278Z,4.04
2023-03-05T20:36:53.456Z,3.96
2023-03-05T20:39:21.727Z,5.12
2023-03-05T20:41:51.444Z,6.16
2023-03-05T20:44:19.608Z,6.85
2023-03-05T20:47:02.815Z,7.16
2023-03-05T20:49:31.109Z,7.18
2023-03-05T20:51:59.187Z,7.29
2023-03-05T20:54:28.312Z,7.73
2023-03-05T20:56:56.548Z,7.96
2023-03-05T20:59:24.921Z,7.23
2023-03-05T21:01:53.111Z,6.42
2023-03-05T21:04:21.372Z,5.75
2023-03-05T21:06:52.806Z,5.12
2023-03-05T21:09:20.997Z,4.53
2023-03-05T21:11:49.166Z,4.06
2023-03-05T21:14:17.656Z,3.80
2023-03-05T21:16:45.867Z,4.44
2023-03-05T21:19:14.198Z,5.21
2023-03-05T21:21:45.772Z,5.60
2023-03-05T21:24:14.226Z,5.82
2023-03-05T21:26:42.397Z,6.12
2023-03-05T21:29:10.568Z,6.44
2023-03-05T21:31:38.679Z,6.83
2023-03-05T21:34:07.016Z,7.35
2023-03-05T21:36:35.392Z,7.80
2023-03-05T21:39:03.568Z,7.80
2023-03-05T21:41:31.738Z,7.02
2023-03-05T21:44:04.166Z,6.20
2023-03-05T21:46:32.489Z,5.55
2023-03-05T21:49:00.660Z,5.00
2023-03-05T21:51:38.671Z,4.47
2023-03-05T21:54:07.344Z,4.02
2023-03-05T21:56:35.830Z,3.63
2023-03-05T21:59:04.093Z,3.43
2023-03-05T22:01:32.333Z,4.33
2023-03-05T22:04:00.684Z,5.32
2023-03-05T22:06:28.921Z,5.96
2023-03-05T22:08:57.092Z,6.36
2023-03-05T22:11:25.362Z,6.73
2023-03-05T22:13:53.430Z,7.19
2023-03-05T22:16:26.227Z,7.52
2023-03-05T22:18:54.911Z,6.71
2023-03-05T22:21:26.624Z,5.74
2023-03-05T22:23:57.368Z,5.00
2023-03-05T22:26:26.208Z,4.37
2023-03-05T22:28:54.341Z,3.81
2023-03-05T22:31:24.047Z,3.38
2023-03-05T22:33:53.255Z,2.96
2023-03-05T22:36:21.620Z,2.61
2023-03-05T22:38:49.806Z,2.49
2023-03-05T22:41:20.007Z,3.27
2023-03-05T22:43:49.619Z,4.14
2023-03-05T22:46:21.035Z,4.71
2023-03-05T22:48:49.547Z,5.02
2023-03-05T22:51:18.820Z,5.31
2023-03-05T22:53:47.427Z,5.67
2023-03-05T22:56:18.154Z,5.97
2023-03-05T22:58:46.451Z,6.03
2023-03-05T23:01:16.534Z,5.83
2023-03-05T23:03:44.843Z,5.70
2023-03-05T23:06:13.218Z,5.06
2023-03-05T23:08:41.395Z,4.37
2023-03-05T23:11:11.704Z,3.82
2023-03-05T23:13:40.904Z,3.34
2023-03-05T23:16:10.005Z,2.89
2023-03-05T23:18:38.379Z,2.62
2023-03-05T23:21:06.769Z,2.99
2023-03-05T23:23:34.928Z,3.63
2023-03-05T23:26:03.220Z,4.67
2023-03-05T23:28:31.373Z,5.37
2023-03-05T23:30:59.565Z,5.76
2023-03-05T23:33:27.725Z,6.06
2023-03-05T23:35:58.212Z,6.36
2023-03-05T23:38:28.565Z,6.66
2023-03-05T23:41:00.697Z,6.92
2023-03-05T23:43:30.028Z,7.17
2023-03-05T23:45:58.466Z,7.22
2023-03-05T23:48:27.660Z,6.40
2023-03-05T23:50:56.384Z,5.39
2023-03-05T23:53:27.737Z,4.57
2023-03-05T23:55:56.218Z,3.94
2023-03-05T23:58:24.403Z,3.42
